sensor_id;sensor_type;location;lat;lon;timestamp;temperature;humidity
18880;DHT22;9572;52.378;13.404;2022-10-16T00:01:53;14.20;99.90
18880;DHT22;9572;52.378;13.404;2022-10-16T00:04:20;14.20;99.90
18880;DHT22;9572;52.378;13.404;2022-10-16T00:06:47;14.20;99.90
18880;DHT22;9572;52.378;13.404;2022-10-16T00:09:13;14.20;99.90
18880;DHT22;9572;52.378;13.404;2022-10-16T00:11:42;14.20;99.90
18880;DHT22;9572;52.378;13.404;2022-10-16T00:14:11;14.20;99.90
18880;DHT22;9572;52.378;13.404;2022-10-16T00:16:39;14.20;99.90
18880;DHT22;9572;52.378;13.404;2022-10-16T00:19:06;14.20;99.90
18880;DHT22;9572;52.378;13.404;2022-10-16T00:21:33;14.30;99.90
18880;DHT22;9572;52.378;13.404;2022-10-16T00:24:02;14.30;99.90
18880;DHT22;9572;52.378;13.404;2022-10-16T00:26:32;14.30;99.90
18880;DHT22;9572;52.378;13.404;2022-10-16T00:29:00;14.30;99.90
18880;DHT22;9572;52.378;13.404;2022-10-16T00:31:27;14.20;99.90
18880;DHT22;9572;52.378;13.404;2022-10-16T00:33:55;14.30;99.90
18880;DHT22;9572;52.378;13.404;2022-10-16T00:36:24;14.30;99.90
18880;DHT22;9572;52.378;13.404;2022-10-16T00:38:51;14.30;99.90
18880;DHT22;9572;52.378;13.404;2022-10-16T00:41:20;14.30;99.90
18880;DHT22;9572;52.378;13.404;2022-10-16T00:43:50;14.20;99.90
18880;DHT22;9572;52.378;13.404;2022-10-16T00:46:20;14.30;99.90
18880;DHT22;9572;52.378;13.404;2022-10-16T00:48:51;14.30;99.90
18880;DHT22;9572;52.378;13.404;2022-10-16T00:51:21;14.30;99.90
18880;DHT22;9572;52.378;13.404;2022-10-16T00:53:50;14.30;99.90
18880;DHT22;9572;52.378;13.404;2022-10-16T00:56:17;14.40;99.90
18880;DHT22;9572;52.378;13.404;2022-10-16T00:58:44;14.30;99.90
18880;DHT22;9572;52.378;13.404;2022-10-16T01:01:11;14.40;99.90
18880;DHT22;9572;52.378;13.404;2022-10-16T01:03:40;14.30;99.90
18880;DHT22;9572;52.378;13.404;2022-10-16T01:06:22;14.40;99.90
18880;DHT22;9572;52.378;13.404;2022-10-16T01:09:02;14.40;99.90
18880;DHT22;9572;52.378;13.404;2022-10-16T01:11:35;14.40;99.90
18880;DHT22;9572;52.378;13.404;2022-10-16T01:14:13;14.40;99.90
18880;DHT22;9572;52.378;13.404;2022-10-16T01:16:46;14.40;99.90
18880;DHT22;9572;52.378;13.404;2022-10-16T01:19:23;14.40;99.90
18880;DHT22;9572;52.378;13.404;2022-10-16T01:21:53;14.40;99.90
18880;DHT22;9572;52.378;13.404;2022-10-16T01:24:31;14.30;99.90
18880;DHT22;9572;52.378;13.404;2022-10-16T01:27:12;14.30;99.90
18880;DHT22;9572;52.378;13.404;2022-10-16T01:29:45;14.30;99.90
18880;DHT22;9572;52.378;13.404;2022-10-16T01:32:33;14.30;99.90
18880;DHT22;9572;52.378;13.404;2022-10-16T01:37:41;14.30;99.90
18880;DHT22;9572;52.378;13.404;2022-10-16T01:40:11;14.20;99.90
18880;DHT22;9572;52.378;13.404;2022-10-16T01:42:40;14.20;99.90
18880;DHT22;9572;52.378;13.404;2022-10-16T01:45:10;14.20;99.90
18880;DHT22;9572;52.378;13.404;2022-10-16T01:47:41;14.10;99.90
18880;DHT22;9572;52.378;13.404;2022-10-16T01:50:09;14.10;99.90
18880;DHT22;9572;52.378;13.404;2022-10-16T01:52:39;14.10;99.90
18880;DHT22;9572;52.378;13.404;2022-10-16T01:55:09;14.10;99.90
18880;DHT22;9572;52.378;13.404;2022-10-16T01:57:39;14.10;99.90
18880;DHT22;9572;52.378;13.404;2022-10-16T02:00:10;14.10;99.90
18880;DHT22;9572;52.378;13.404;2022-10-16T02:02:40;14.10;99.90
18880;DHT22;9572;52.378;13.404;2022-10-16T02:05:14;14.00;99.90
18880;DHT22;9572;52.378;13.404;2022-10-16T02:07:42;14.10;99.90
18880;DHT22;9572;52.378;13.404;2022-10-16T02:10:09;14.10;99.90
18880;DHT22;9572;52.378;13.404;2022-10-16T02:12:39;14.20;99.90
18880;DHT22;9572;52.378;13.404;2022-10-16T02:15:08;14.20;99.90
18880;DHT22;9572;52.378;13.404;2022-10-16T02:17:35;14.30;99.90
18880;DHT22;9572;52.378;13.404;2022-10-16T02:20:04;14.30;99.90
18880;DHT22;9572;52.378;13.404;2022-10-16T02:22:34;14.30;99.90
18880;DHT22;9572;52.378;13.404;2022-10-16T02:25:06;14.30;99.90
18880;DHT22;9572;52.378;13.404;2022-10-16T02:27:39;14.40;99.90
18880;DHT22;9572;52.378;13.404;2022-10-16T02:30:13;14.50;99.90
18880;DHT22;9572;52.378;13.404;2022-10-16T02:32:43;14.40;99.90
18880;DHT22;9572;52.378;13.404;2022-10-16T02:35:13;14.40;99.90
18880;DHT22;9572;52.378;13.404;2022-10-16T02:37:40;14.40;99.90
18880;DHT22;9572;52.378;13.404;2022-10-16T02:40:09;14.40;99.90
18880;DHT22;9572;52.378;13.404;2022-10-16T02:42:38;14.40;99.90
18880;DHT22;9572;52.378;13.404;2022-10-16T02:45:06;14.50;99.90
18880;DHT22;9572;52.378;13.404;2022-10-16T02:47:33;14.50;99.90
18880;DHT22;9572;52.378;13.404;2022-10-16T02:50:01;14.50;99.90
18880;DHT22;9572;52.378;13.404;2022-10-16T02:52:29;14.40;99.90
18880;DHT22;9572;52.378;13.404;2022-10-16T02:54:56;14.40;99.90
18880;DHT22;9572;52.378;13.404;2022-10-16T02:57:23;14.40;99.90
18880;DHT22;9572;52.378;13.404;2022-10-16T02:59:49;14.40;99.90
18880;DHT22;9572;52.378;13.404;2022-10-16T03:02:16;14.40;99.90
18880;DHT22;9572;52.378;13.404;2022-10-16T03:04:44;14.40;99.90
18880;DHT22;9572;52.378;13.404;2022-10-16T03:07:11;14.30;99.90
18880;DHT22;9572;52.378;13.404;2022-10-16T03:09:39;14.30;99.90
18880;DHT22;9572;52.378;13.404;2022-10-16T03:12:06;14.30;99.90
18880;DHT22;9572;52.378;13.404;2022-10-16T03:14:33;14.20;99.90
18880;DHT22;9572;52.378;13.404;2022-10-16T03:16:59;14.20;99.90
18880;DHT22;9572;52.378;13.404;2022-10-16T03:19:26;14.20;99.90
18880;DHT22;9572;52.378;13.404;2022-10-16T03:21:53;14.10;99.90
18880;DHT22;9572;52.378;13.404;2022-10-16T03:24:20;14.10;99.90
18880;DHT22;9572;52.378;13.404;2022-10-16T03:26:48;14.10;99.90
18880;DHT22;9572;52.378;13.404;2022-10-16T03:29:15;14.10;99.90
18880;DHT22;9572;52.378;13.404;2022-10-16T03:31:42;14.10;99.90
18880;DHT22;9572;52.378;13.404;2022-10-16T03:34:09;14.10;99.90
18880;DHT22;9572;52.378;13.404;2022-10-16T03:36:36;14.10;99.90
18880;DHT22;9572;52.378;13.404;2022-10-16T03:39:03;14.10;99.90
18880;DHT22;9572;52.378;13.404;2022-10-16T03:41:30;14.10;99.90
18880;DHT22;9572;52.378;13.404;2022-10-16T03:43:58;14.00;99.90
18880;DHT22;9572;52.378;13.404;2022-10-16T03:46:25;14.00;99.90
18880;DHT22;9572;52.378;13.404;2022-10-16T03:48:52;13.90;99.90
18880;DHT22;9572;52.378;13.404;2022-10-16T03:51:19;13.90;99.90
18880;DHT22;9572;52.378;13.404;2022-10-16T03:53:46;13.90;99.90
18880;DHT22;9572;52.378;13.404;2022-10-16T03:56:13;13.90;99.90
18880;DHT22;9572;52.378;13.404;2022-10-16T03:58:39;13.80;99.90
18880;DHT22;9572;52.378;13.404;2022-10-16T04:01:08;13.80;99.90
18880;DHT22;9572;52.378;13.404;2022-10-16T04:03:35;13.80;99.90
18880;DHT22;9572;52.378;13.404;2022-10-16T04:06:01;13.80;99.90
18880;DHT22;9572;52.378;13.404;2022-10-16T04:08:28;13.80;99.90
18880;DHT22;9572;52.378;13.404;2022-10-16T04:10:55;13.80;99.90
18880;DHT22;9572;52.378;13.404;2022-10-16T04:13:22;13.80;99.90
18880;DHT22;9572;52.378;13.404;2022-10-16T04:15:49;13.80;99.90
18880;DHT22;9572;52.378;13.404;2022-10-16T04:18:17;13.80;99.90
18880;DHT22;9572;52.378;13.404;2022-10-16T04:20:44;13.80;99.90
18880;DHT22;9572;52.378;13.404;2022-10-16T04:23:11;13.80;99.90
18880;DHT22;9572;52.378;13.404;2022-10-16T04:25:38;13.80;99.90
18880;DHT22;9572;52.378;13.404;2022-10-16T04:28:05;13.80;99.90
18880;DHT22;9572;52.378;13.404;2022-10-16T04:30:31;13.80;99.90
18880;DHT22;9572;52.378;13.404;2022-10-16T04:32:59;13.80;99.90
18880;DHT22;9572;52.378;13.404;2022-10-16T04:35:27;13.80;99.90
18880;DHT22;9572;52.378;13.404;2022-10-16T04:37:54;13.80;99.90
18880;DHT22;9572;52.378;13.404;2022-10-16T04:40:21;13.80;99.90
18880;DHT22;9572;52.378;13.404;2022-10-16T04:42:47;13.80;99.90
18880;DHT22;9572;52.378;13.404;2022-10-16T04:45:15;13.80;99.90
18880;DHT22;9572;52.378;13.404;2022-10-16T04:47:41;13.80;99.90
18880;DHT22;9572;52.378;13.404;2022-10-16T04:50:08;13.80;99.90
18880;DHT22;9572;52.378;13.404;2022-10-16T04:52:37;13.80;99.90
18880;DHT22;9572;52.378;13.404;2022-10-16T04:55:05;13.80;99.90
18880;DHT22;9572;52.378;13.404;2022-10-16T04:57:32;13.80;99.90
18880;DHT22;9572;52.378;13.404;2022-10-16T04:59:59;13.80;99.90
18880;DHT22;9572;52.378;13.404;2022-10-16T05:02:26;13.70;99.90
18880;DHT22;9572;52.378;13.404;2022-10-16T05:04:53;13.70;99.90
18880;DHT22;9572;52.378;13.404;2022-10-16T05:07:20;13.70;99.90
18880;DHT22;9572;52.378;13.404;2022-10-16T05:09:48;13.70;99.90
18880;DHT22;9572;52.378;13.404;2022-10-16T05:12:15;13.70;99.90
18880;DHT22;9572;52.378;13.404;2022-10-16T05:14:42;13.60;99.90
18880;DHT22;9572;52.378;13.404;2022-10-16T05:17:09;13.60;99.90
18880;DHT22;9572;52.378;13.404;2022-10-16T05:19:36;13.50;99.90
18880;DHT22;9572;52.378;13.404;2022-10-16T05:22:03;13.50;99.90
18880;DHT22;9572;52.378;13.404;2022-10-16T05:24:29;13.50;99.90
18880;DHT22;9572;52.378;13.404;2022-10-16T05:26:58;13.50;99.90
18880;DHT22;9572;52.378;13.404;2022-10-16T05:29:25;13.40;99.90
18880;DHT22;9572;52.378;13.404;2022-10-16T05:31:52;13.40;99.90
18880;DHT22;9572;52.378;13.404;2022-10-16T05:34:20;13.40;99.90
18880;DHT22;9572;52.378;13.404;2022-10-16T05:36:47;13.40;99.90
18880;DHT22;9572;52.378;13.404;2022-10-16T05:39:14;13.40;99.90
18880;DHT22;9572;52.378;13.404;2022-10-16T05:41:41;13.40;99.90
18880;DHT22;9572;52.378;13.404;2022-10-16T05:44:10;13.40;99.90
18880;DHT22;9572;52.378;13.404;2022-10-16T05:46:37;13.50;99.90
18880;DHT22;9572;52.378;13.404;2022-10-16T05:49:04;13.50;99.90
18880;DHT22;9572;52.378;13.404;2022-10-16T05:51:31;13.50;99.90
18880;DHT22;9572;52.378;13.404;2022-10-16T05:53:58;13.50;99.90
18880;DHT22;9572;52.378;13.404;2022-10-16T05:56:24;13.50;99.90
18880;DHT22;9572;52.378;13.404;2022-10-16T05:58:52;13.50;99.90
18880;DHT22;9572;52.378;13.404;2022-10-16T06:01:20;13.50;99.90
18880;DHT22;9572;52.378;13.404;2022-10-16T06:03:50;13.50;99.90
18880;DHT22;9572;52.378;13.404;2022-10-16T06:06:19;13.60;99.90
18880;DHT22;9572;52.378;13.404;2022-10-16T06:08:47;13.60;99.90
18880;DHT22;9572;52.378;13.404;2022-10-16T06:11:16;13.60;99.90
18880;DHT22;9572;52.378;13.404;2022-10-16T06:13:44;13.60;99.90
18880;DHT22;9572;52.378;13.404;2022-10-16T06:16:12;13.70;99.90
18880;DHT22;9572;52.378;13.404;2022-10-16T06:18:40;13.70;99.90
18880;DHT22;9572;52.378;13.404;2022-10-16T06:21:09;13.70;99.90
18880;DHT22;9572;52.378;13.404;2022-10-16T06:23:36;13.80;99.90
18880;DHT22;9572;52.378;13.404;2022-10-16T06:26:07;13.80;99.90
18880;DHT22;9572;52.378;13.404;2022-10-16T06:28:34;13.90;99.90
18880;DHT22;9572;52.378;13.404;2022-10-16T06:31:02;13.90;99.90
18880;DHT22;9572;52.378;13.404;2022-10-16T06:33:29;14.00;99.90
18880;DHT22;9572;52.378;13.404;2022-10-16T06:36:01;14.10;99.90
18880;DHT22;9572;52.378;13.404;2022-10-16T06:38:29;14.20;99.90
18880;DHT22;9572;52.378;13.404;2022-10-16T06:40:56;14.30;99.90
18880;DHT22;9572;52.378;13.404;2022-10-16T06:43:23;14.30;99.90
18880;DHT22;9572;52.378;13.404;2022-10-16T06:45:51;14.30;99.90
18880;DHT22;9572;52.378;13.404;2022-10-16T06:48:18;14.30;99.90
18880;DHT22;9572;52.378;13.404;2022-10-16T06:50:55;14.40;99.90
18880;DHT22;9572;52.378;13.404;2022-10-16T06:53:23;14.40;99.90
18880;DHT22;9572;52.378;13.404;2022-10-16T06:55:50;14.40;99.90
18880;DHT22;9572;52.378;13.404;2022-10-16T06:58:17;14.40;99.90
18880;DHT22;9572;52.378;13.404;2022-10-16T07:00:44;14.50;99.90
18880;DHT22;9572;52.378;13.404;2022-10-16T07:03:11;14.50;99.90
18880;DHT22;9572;52.378;13.404;2022-10-16T07:05:39;14.70;99.90
18880;DHT22;9572;52.378;13.404;2022-10-16T07:08:06;14.70;99.90
18880;DHT22;9572;52.378;13.404;2022-10-16T07:10:35;14.80;99.90
18880;DHT22;9572;52.378;13.404;2022-10-16T07:13:02;14.90;99.90
18880;DHT22;9572;52.378;13.404;2022-10-16T07:15:29;14.90;99.90
18880;DHT22;9572;52.378;13.404;2022-10-16T07:17:56;15.10;99.90
18880;DHT22;9572;52.378;13.404;2022-10-16T07:20:22;15.20;99.90
18880;DHT22;9572;52.378;13.404;2022-10-16T07:22:49;15.40;99.90
18880;DHT22;9572;52.378;13.404;2022-10-16T07:25:16;15.50;99.90
18880;DHT22;9572;52.378;13.404;2022-10-16T07:27:44;15.70;99.90
18880;DHT22;9572;52.378;13.404;2022-10-16T07:30:12;15.90;99.90
18880;DHT22;9572;52.378;13.404;2022-10-16T07:32:38;16.10;99.90
18880;DHT22;9572;52.378;13.404;2022-10-16T07:35:06;16.30;99.90
18880;DHT22;9572;52.378;13.404;2022-10-16T07:37:33;16.40;99.90
18880;DHT22;9572;52.378;13.404;2022-10-16T07:40:00;16.60;99.90
18880;DHT22;9572;52.378;13.404;2022-10-16T07:42:27;16.70;99.90
18880;DHT22;9572;52.378;13.404;2022-10-16T07:44:56;16.80;99.90
18880;DHT22;9572;52.378;13.404;2022-10-16T07:47:22;16.70;99.90
18880;DHT22;9572;52.378;13.404;2022-10-16T07:49:49;16.70;99.90
18880;DHT22;9572;52.378;13.404;2022-10-16T07:52:16;16.70;99.90
18880;DHT22;9572;52.378;13.404;2022-10-16T07:54:43;16.70;99.90
18880;DHT22;9572;52.378;13.404;2022-10-16T07:57:10;16.70;99.90
18880;DHT22;9572;52.378;13.404;2022-10-16T07:59:37;16.70;99.90
18880;DHT22;9572;52.378;13.404;2022-10-16T08:02:05;16.60;99.90
18880;DHT22;9572;52.378;13.404;2022-10-16T08:04:32;16.70;99.90
18880;DHT22;9572;52.378;13.404;2022-10-16T08:06:58;16.70;99.90
18880;DHT22;9572;52.378;13.404;2022-10-16T08:09:25;16.70;99.90
18880;DHT22;9572;52.378;13.404;2022-10-16T08:11:52;16.80;99.90
18880;DHT22;9572;52.378;13.404;2022-10-16T08:14:19;16.90;99.90
18880;DHT22;9572;52.378;13.404;2022-10-16T08:16:46;16.90;99.90
18880;DHT22;9572;52.378;13.404;2022-10-16T08:19:14;17.00;99.90
18880;DHT22;9572;52.378;13.404;2022-10-16T08:21:42;17.00;99.90
18880;DHT22;9572;52.378;13.404;2022-10-16T08:24:08;17.10;99.90
18880;DHT22;9572;52.378;13.404;2022-10-16T08:26:35;17.10;99.90
18880;DHT22;9572;52.378;13.404;2022-10-16T08:29:02;17.20;99.90
18880;DHT22;9572;52.378;13.404;2022-10-16T08:31:29;17.30;99.90
18880;DHT22;9572;52.378;13.404;2022-10-16T08:33:56;17.30;99.90
18880;DHT22;9572;52.378;13.404;2022-10-16T08:36:24;17.40;99.90
18880;DHT22;9572;52.378;13.404;2022-10-16T08:38:51;17.50;99.90
18880;DHT22;9572;52.378;13.404;2022-10-16T08:42:05;17.60;99.90
18880;DHT22;9572;52.378;13.404;2022-10-16T08:47:26;17.80;99.90
18880;DHT22;9572;52.378;13.404;2022-10-16T08:49:56;17.80;99.90
18880;DHT22;9572;52.378;13.404;2022-10-16T08:52:29;17.80;99.90
18880;DHT22;9572;52.378;13.404;2022-10-16T08:54:58;17.80;99.90
18880;DHT22;9572;52.378;13.404;2022-10-16T08:57:26;17.80;99.90
18880;DHT22;9572;52.378;13.404;2022-10-16T08:59:53;17.80;99.90
18880;DHT22;9572;52.378;13.404;2022-10-16T09:02:31;17.80;99.90
18880;DHT22;9572;52.378;13.404;2022-10-16T09:05:24;17.70;99.90
18880;DHT22;9572;52.378;13.404;2022-10-16T09:08:03;17.70;99.90
18880;DHT22;9572;52.378;13.404;2022-10-16T09:10:39;17.70;99.90
18880;DHT22;9572;52.378;13.404;2022-10-16T09:13:17;17.70;99.90
18880;DHT22;9572;52.378;13.404;2022-10-16T09:15:51;17.80;99.90
18880;DHT22;9572;52.378;13.404;2022-10-16T09:18:23;17.80;99.90
18880;DHT22;9572;52.378;13.404;2022-10-16T09:20:57;17.90;99.90
18880;DHT22;9572;52.378;13.404;2022-10-16T09:23:29;18.00;99.90
18880;DHT22;9572;52.378;13.404;2022-10-16T09:25:58;18.20;99.90
18880;DHT22;9572;52.378;13.404;2022-10-16T09:28:25;18.20;99.90
18880;DHT22;9572;52.378;13.404;2022-10-16T09:30:52;18.30;99.90
18880;DHT22;9572;52.378;13.404;2022-10-16T09:33:23;18.30;99.90
18880;DHT22;9572;52.378;13.404;2022-10-16T09:35:52;18.40;99.90
18880;DHT22;9572;52.378;13.404;2022-10-16T09:38:25;18.40;99.90
18880;DHT22;9572;52.378;13.404;2022-10-16T09:40:55;18.40;99.90
18880;DHT22;9572;52.378;13.404;2022-10-16T09:43:24;18.50;99.90
18880;DHT22;9572;52.378;13.404;2022-10-16T09:45:54;18.60;99.90
18880;DHT22;9572;52.378;13.404;2022-10-16T09:48:22;18.50;99.90
18880;DHT22;9572;52.378;13.404;2022-10-16T09:50:59;18.50;99.90
18880;DHT22;9572;52.378;13.404;2022-10-16T09:56:23;18.60;99.90
18880;DHT22;9572;52.378;13.404;2022-10-16T09:58:51;18.60;99.90
18880;DHT22;9572;52.378;13.404;2022-10-16T10:01:19;18.60;99.90
18880;DHT22;9572;52.378;13.404;2022-10-16T10:03:47;18.60;99.90
18880;DHT22;9572;52.378;13.404;2022-10-16T10:06:24;18.50;99.90
18880;DHT22;9572;52.378;13.404;2022-10-16T10:09:00;18.70;99.90
18880;DHT22;9572;52.378;13.404;2022-10-16T10:11:53;18.80;99.90
18880;DHT22;9572;52.378;13.404;2022-10-16T10:14:26;18.90;99.90
18880;DHT22;9572;52.378;13.404;2022-10-16T10:17:08;19.20;99.90
18880;DHT22;9572;52.378;13.404;2022-10-16T10:19:41;19.30;99.90
18880;DHT22;9572;52.378;13.404;2022-10-16T10:22:29;19.50;99.90
18880;DHT22;9572;52.378;13.404;2022-10-16T10:24:59;19.60;99.90
18880;DHT22;9572;52.378;13.404;2022-10-16T10:27:35;19.60;99.90
18880;DHT22;9572;52.378;13.404;2022-10-16T10:30:09;19.60;99.90
18880;DHT22;9572;52.378;13.404;2022-10-16T10:32:46;19.60;99.90
18880;DHT22;9572;52.378;13.404;2022-10-16T10:35:20;19.50;99.90
18880;DHT22;9572;52.378;13.404;2022-10-16T10:38:02;19.50;99.90
18880;DHT22;9572;52.378;13.404;2022-10-16T10:40:40;19.50;99.90
18880;DHT22;9572;52.378;13.404;2022-10-16T10:43:24;19.50;99.90
18880;DHT22;9572;52.378;13.404;2022-10-16T10:45:58;19.50;99.90
18880;DHT22;9572;52.378;13.404;2022-10-16T10:48:51;19.50;99.90
18880;DHT22;9572;52.378;13.404;2022-10-16T10:51:27;19.40;99.90
18880;DHT22;9572;52.378;13.404;2022-10-16T10:54:04;19.40;99.90
18880;DHT22;9572;52.378;13.404;2022-10-16T10:56:45;19.40;99.90
18880;DHT22;9572;52.378;13.404;2022-10-16T11:02:17;19.50;99.90
18880;DHT22;9572;52.378;13.404;2022-10-16T11:05:01;19.40;99.90
18880;DHT22;9572;52.378;13.404;2022-10-16T11:07:34;19.40;99.90
18880;DHT22;9572;52.378;13.404;2022-10-16T11:10:07;19.40;99.90
18880;DHT22;9572;52.378;13.404;2022-10-16T11:12:40;19.40;99.90
18880;DHT22;9572;52.378;13.404;2022-10-16T11:15:14;19.40;99.90
18880;DHT22;9572;52.378;13.404;2022-10-16T11:17:46;19.30;99.90
18880;DHT22;9572;52.378;13.404;2022-10-16T11:20:19;19.30;99.90
18880;DHT22;9572;52.378;13.404;2022-10-16T11:22:50;19.50;99.90
18880;DHT22;9572;52.378;13.404;2022-10-16T11:25:22;19.70;99.90
18880;DHT22;9572;52.378;13.404;2022-10-16T11:27:54;19.80;99.90
18880;DHT22;9572;52.378;13.404;2022-10-16T11:30:26;19.90;99.90
18880;DHT22;9572;52.378;13.404;2022-10-16T11:33:03;20.00;99.90
18880;DHT22;9572;52.378;13.404;2022-10-16T11:35:41;20.00;99.90
18880;DHT22;9572;52.378;13.404;2022-10-16T11:38:18;20.10;99.90
18880;DHT22;9572;52.378;13.404;2022-10-16T11:40:50;20.10;99.90
18880;DHT22;9572;52.378;13.404;2022-10-16T11:43:24;20.10;99.90
18880;DHT22;9572;52.378;13.404;2022-10-16T11:45:55;20.20;99.90
18880;DHT22;9572;52.378;13.404;2022-10-16T11:48:27;20.30;99.90
18880;DHT22;9572;52.378;13.404;2022-10-16T11:51:02;20.30;99.90
18880;DHT22;9572;52.378;13.404;2022-10-16T11:53:42;20.30;99.90
18880;DHT22;9572;52.378;13.404;2022-10-16T11:56:12;20.40;99.90
18880;DHT22;9572;52.378;13.404;2022-10-16T11:58:49;20.50;99.90
18880;DHT22;9572;52.378;13.404;2022-10-16T12:01:24;20.50;99.90
18880;DHT22;9572;52.378;13.404;2022-10-16T12:04:04;20.40;99.90
18880;DHT22;9572;52.378;13.404;2022-10-16T12:06:36;20.40;99.90
18880;DHT22;9572;52.378;13.404;2022-10-16T12:09:04;20.30;99.90
18880;DHT22;9572;52.378;13.404;2022-10-16T12:11:37;20.30;99.90
18880;DHT22;9572;52.378;13.404;2022-10-16T12:14:07;20.30;99.90
18880;DHT22;9572;52.378;13.404;2022-10-16T12:16:53;20.30;99.90
18880;DHT22;9572;52.378;13.404;2022-10-16T12:19:22;20.30;99.90
18880;DHT22;9572;52.378;13.404;2022-10-16T12:21:51;20.20;99.90
18880;DHT22;9572;52.378;13.404;2022-10-16T12:24:32;20.10;99.90
18880;DHT22;9572;52.378;13.404;2022-10-16T12:26:59;20.10;99.90
18880;DHT22;9572;52.378;13.404;2022-10-16T12:29:36;20.00;99.90
18880;DHT22;9572;52.378;13.404;2022-10-16T12:32:22;19.90;99.90
18880;DHT22;9572;52.378;13.404;2022-10-16T12:34:51;19.90;99.90
18880;DHT22;9572;52.378;13.404;2022-10-16T12:37:22;19.90;99.90
18880;DHT22;9572;52.378;13.404;2022-10-16T12:39:51;19.90;99.90
18880;DHT22;9572;52.378;13.404;2022-10-16T12:42:30;20.00;99.90
18880;DHT22;9572;52.378;13.404;2022-10-16T12:44:57;20.10;99.90
18880;DHT22;9572;52.378;13.404;2022-10-16T12:47:37;20.20;99.90
18880;DHT22;9572;52.378;13.404;2022-10-16T12:50:24;20.20;99.90
18880;DHT22;9572;52.378;13.404;2022-10-16T12:52:52;20.20;99.90
18880;DHT22;9572;52.378;13.404;2022-10-16T12:55:21;20.30;99.90
18880;DHT22;9572;52.378;13.404;2022-10-16T12:58:02;20.30;99.90
18880;DHT22;9572;52.378;13.404;2022-10-16T13:00:39;20.30;99.90
18880;DHT22;9572;52.378;13.404;2022-10-16T13:03:26;20.20;99.90
18880;DHT22;9572;52.378;13.404;2022-10-16T13:06:08;20.20;99.90
18880;DHT22;9572;52.378;13.404;2022-10-16T13:11:44;20.30;99.90
18880;DHT22;9572;52.378;13.404;2022-10-16T13:17:13;20.30;99.90
18880;DHT22;9572;52.378;13.404;2022-10-16T13:19:52;20.20;99.90
18880;DHT22;9572;52.378;13.404;2022-10-16T13:22:24;20.20;99.90
18880;DHT22;9572;52.378;13.404;2022-10-16T13:25:02;20.30;99.90
18880;DHT22;9572;52.378;13.404;2022-10-16T13:27:37;20.40;99.90
18880;DHT22;9572;52.378;13.404;2022-10-16T13:30:12;20.50;99.90
18880;DHT22;9572;52.378;13.404;2022-10-16T13:32:45;20.50;99.90
18880;DHT22;9572;52.378;13.404;2022-10-16T13:35:22;20.50;99.90
18880;DHT22;9572;52.378;13.404;2022-10-16T13:37:50;20.50;99.90
18880;DHT22;9572;52.378;13.404;2022-10-16T13:40:22;20.40;99.90
18880;DHT22;9572;52.378;13.404;2022-10-16T13:42:50;20.40;99.90
18880;DHT22;9572;52.378;13.404;2022-10-16T13:45:19;20.30;99.90
18880;DHT22;9572;52.378;13.404;2022-10-16T13:47:46;20.30;99.90
18880;DHT22;9572;52.378;13.404;2022-10-16T13:50:14;20.30;99.90
18880;DHT22;9572;52.378;13.404;2022-10-16T13:52:43;20.30;99.90
18880;DHT22;9572;52.378;13.404;2022-10-16T13:55:11;20.20;99.90
18880;DHT22;9572;52.378;13.404;2022-10-16T13:57:38;20.30;99.90
18880;DHT22;9572;52.378;13.404;2022-10-16T14:00:18;20.40;99.90
18880;DHT22;9572;52.378;13.404;2022-10-16T14:02:50;20.40;99.90
18880;DHT22;9572;52.378;13.404;2022-10-16T14:05:18;20.40;99.90
18880;DHT22;9572;52.378;13.404;2022-10-16T14:07:49;20.30;99.90
18880;DHT22;9572;52.378;13.404;2022-10-16T14:10:23;20.30;99.90
18880;DHT22;9572;52.378;13.404;2022-10-16T14:12:59;20.30;99.90
18880;DHT22;9572;52.378;13.404;2022-10-16T14:15:27;20.30;99.90
18880;DHT22;9572;52.378;13.404;2022-10-16T14:17:55;20.20;99.90
18880;DHT22;9572;52.378;13.404;2022-10-16T14:20:25;20.10;99.90
18880;DHT22;9572;52.378;13.404;2022-10-16T14:23:02;20.00;99.90
18880;DHT22;9572;52.378;13.404;2022-10-16T14:25:31;19.90;99.90
18880;DHT22;9572;52.378;13.404;2022-10-16T14:28:04;19.80;99.90
18880;DHT22;9572;52.378;13.404;2022-10-16T14:30:32;19.70;99.90
18880;DHT22;9572;52.378;13.404;2022-10-16T14:33:01;19.70;99.90
18880;DHT22;9572;52.378;13.404;2022-10-16T14:35:31;19.80;99.90
18880;DHT22;9572;52.378;13.404;2022-10-16T14:38:01;19.70;99.90
18880;DHT22;9572;52.378;13.404;2022-10-16T14:40:32;19.70;99.90
18880;DHT22;9572;52.378;13.404;2022-10-16T14:42:59;19.60;99.90
18880;DHT22;9572;52.378;13.404;2022-10-16T14:45:29;19.50;99.90
18880;DHT22;9572;52.378;13.404;2022-10-16T14:47:58;19.50;99.90
18880;DHT22;9572;52.378;13.404;2022-10-16T14:50:26;19.40;99.90
18880;DHT22;9572;52.378;13.404;2022-10-16T14:52:54;19.40;99.90
18880;DHT22;9572;52.378;13.404;2022-10-16T14:55:24;19.30;99.90
18880;DHT22;9572;52.378;13.404;2022-10-16T14:57:51;19.20;99.90
18880;DHT22;9572;52.378;13.404;2022-10-16T15:00:21;19.00;99.90
18880;DHT22;9572;52.378;13.404;2022-10-16T15:02:49;18.90;99.90
18880;DHT22;9572;52.378;13.404;2022-10-16T15:05:19;18.90;99.90
18880;DHT22;9572;52.378;13.404;2022-10-16T15:07:47;18.80;99.90
18880;DHT22;9572;52.378;13.404;2022-10-16T15:10:15;18.70;99.90
18880;DHT22;9572;52.378;13.404;2022-10-16T15:12:44;18.60;99.90
18880;DHT22;9572;52.378;13.404;2022-10-16T15:15:36;18.60;99.90
18880;DHT22;9572;52.378;13.404;2022-10-16T15:18:04;18.50;99.90
18880;DHT22;9572;52.378;13.404;2022-10-16T15:20:34;18.50;99.90
18880;DHT22;9572;52.378;13.404;2022-10-16T15:23:04;18.40;99.90
18880;DHT22;9572;52.378;13.404;2022-10-16T15:25:35;18.40;99.90
18880;DHT22;9572;52.378;13.404;2022-10-16T15:28:09;18.30;99.90
18880;DHT22;9572;52.378;13.404;2022-10-16T15:30:36;18.20;99.90
18880;DHT22;9572;52.378;13.404;2022-10-16T15:33:05;18.20;99.90
18880;DHT22;9572;52.378;13.404;2022-10-16T15:35:33;18.20;99.90
18880;DHT22;9572;52.378;13.404;2022-10-16T15:38:00;18.10;99.90
18880;DHT22;9572;52.378;13.404;2022-10-16T15:40:27;18.00;99.90
18880;DHT22;9572;52.378;13.404;2022-10-16T15:42:54;17.90;99.90
18880;DHT22;9572;52.378;13.404;2022-10-16T15:45:23;17.80;99.90
18880;DHT22;9572;52.378;13.404;2022-10-16T15:47:50;17.70;99.90
18880;DHT22;9572;52.378;13.404;2022-10-16T15:50:16;17.60;99.90
18880;DHT22;9572;52.378;13.404;2022-10-16T15:52:43;17.50;99.90
18880;DHT22;9572;52.378;13.404;2022-10-16T15:55:12;17.40;99.90
18880;DHT22;9572;52.378;13.404;2022-10-16T15:57:40;17.30;99.90
18880;DHT22;9572;52.378;13.404;2022-10-16T16:00:10;17.20;99.90
18880;DHT22;9572;52.378;13.404;2022-10-16T16:02:39;17.10;99.90
18880;DHT22;9572;52.378;13.404;2022-10-16T16:05:07;17.00;99.90
18880;DHT22;9572;52.378;13.404;2022-10-16T16:07:35;16.90;99.90